Time;durP1;ratioP1;P1;durP2;ratioP2;P2;SDS_P1;SDS_P2;PMS_P1;PMS_P2;Temp;Humidity;BMP_temperature;BMP_pressure;BME280_temperature;BME280_humidity;BME280_pressure;Samples;Min_cycle;Max_cycle;Signal;HPM_P1;HPM_P2
2021/11/11 00:00:19;;;;;;;25.40;11.38;;;2.20;88.50;;;;;;6186859;28;20079;-81
2021/11/11 00:03:21;;;;;;;23.75;11.13;;;2.20;88.70;;;;;;6186958;28;20057;-80
2021/11/11 00:06:24;;;;;;;26.05;12.02;;;2.20;88.50;;;;;;6187525;28;20545;-82
2021/11/11 00:09:26;;;;;;;28.80;10.85;;;2.20;88.50;;;;;;6186686;28;20050;-82
2021/11/11 00:12:31;;;;;;;25.70;12.15;;;2.10;88.50;;;;;;6187448;28;20058;-81
2021/11/11 00:15:33;;;;;;;25.83;12.63;;;2.10;88.50;;;;;;6195134;28;20061;-79
2021/11/11 00:18:35;;;;;;;34.05;14.35;;;2.10;88.50;;;;;;6185714;28;20106;-81
2021/11/11 00:21:39;;;;;;;23.85;12.43;;;2.10;88.40;;;;;;6206815;28;20057;-80
2021/11/11 00:24:40;;;;;;;27.00;12.68;;;2.10;88.30;;;;;;6205376;28;20065;-80
2021/11/11 00:27:43;;;;;;;22.25;12.25;;;2.10;88.20;;;;;;6204569;28;20059;-81
2021/11/11 00:30:44;;;;;;;33.47;12.07;;;2.10;88.20;;;;;;6206027;28;20054;-80
2021/11/11 00:33:46;;;;;;;29.00;13.70;;;2.10;88.10;;;;;;6204222;28;20052;-81
2021/11/11 00:36:50;;;;;;;27.38;11.63;;;2.10;88.50;;;;;;6204599;28;20046;-80
2021/11/11 00:39:52;;;;;;;33.20;14.02;;;2.10;88.30;;;;;;6203390;28;20086;-81
2021/11/11 00:42:53;;;;;;;28.52;13.90;;;2.10;88.40;;;;;;6203989;28;20085;-81
2021/11/11 00:45:55;;;;;;;30.45;14.40;;;2.00;88.40;;;;;;6204924;28;20050;-81
2021/11/11 00:48:57;;;;;;;29.30;11.77;;;2.00;88.50;;;;;;6203009;28;20046;-82
2021/11/11 00:52:00;;;;;;;35.92;14.27;;;2.00;88.40;;;;;;6202834;28;20117;-82
2021/11/11 00:55:03;;;;;;;27.67;13.23;;;2.00;88.80;;;;;;6203352;28;20110;-81
2021/11/11 00:58:05;;;;;;;30.50;14.52;;;2.00;88.80;;;;;;6202632;28;20058;-80
2021/11/11 01:01:07;;;;;;;32.63;15.27;;;2.00;89.00;;;;;;6204427;28;20089;-81
2021/11/11 01:04:09;;;;;;;31.95;14.65;;;2.00;89.00;;;;;;6204858;28;20049;-82
2021/11/11 01:07:12;;;;;;;36.00;16.90;;;2.00;88.90;;;;;;6204962;28;20078;-82
2021/11/11 01:10:16;;;;;;;37.28;15.27;;;1.90;88.70;;;;;;6203693;28;20050;-81
2021/11/11 01:13:18;;;;;;;34.03;15.35;;;1.90;88.70;;;;;;6204112;28;20053;-81
2021/11/11 01:16:20;;;;;;;26.17;14.25;;;1.80;88.80;;;;;;6204656;28;20069;-82
2021/11/11 01:19:22;;;;;;;31.27;13.52;;;1.80;89.10;;;;;;6204473;28;20097;-81
2021/11/11 01:22:25;;;;;;;32.05;13.98;;;1.80;89.40;;;;;;6205142;28;20046;-81
2021/11/11 01:25:32;;;;;;;49.33;16.88;;;1.80;89.50;;;;;;6218982;28;20046;-82
2021/11/11 01:28:34;;;;;;;38.55;17.35;;;1.90;89.70;;;;;;6203886;28;20133;-80
2021/11/11 01:31:36;;;;;;;31.73;15.00;;;1.90;89.70;;;;;;6200841;28;20094;-82
2021/11/11 01:34:38;;;;;;;39.50;14.15;;;1.90;89.60;;;;;;6199663;28;20244;-80
2021/11/11 01:37:44;;;;;;;29.33;14.50;;;1.90;89.30;;;;;;6203240;28;20046;-81
2021/11/11 01:40:46;;;;;;;36.42;15.40;;;1.90;89.30;;;;;;6205542;28;20504;-81
2021/11/11 01:43:48;;;;;;;34.38;16.00;;;2.00;89.50;;;;;;6205330;28;20054;-81
2021/11/11 01:46:50;;;;;;;33.42;13.82;;;2.00;89.80;;;;;;6210241;28;20089;-80
2021/11/11 01:49:51;;;;;;;27.27;13.82;;;1.90;89.50;;;;;;6206670;28;20050;-81
2021/11/11 01:52:56;;;;;;;37.78;16.40;;;1.90;89.90;;;;;;6207914;28;20056;-81
2021/11/11 01:55:58;;;;;;;31.15;16.10;;;2.10;90.00;;;;;;6207878;28;20046;-81
2021/11/11 01:59:00;;;;;;;42.38;14.93;;;2.20;89.60;;;;;;6205928;28;20058;-80
2021/11/11 02:02:03;;;;;;;31.08;15.00;;;2.30;89.30;;;;;;6207172;28;20043;-81
2021/11/11 02:05:05;;;;;;;34.45;15.00;;;2.40;89.00;;;;;;6207344;28;20050;-82
2021/11/11 02:08:09;;;;;;;29.48;15.30;;;2.40;89.00;;;;;;6208505;28;20046;-82
2021/11/11 02:11:11;;;;;;;33.67;15.82;;;2.40;88.90;;;;;;6207648;28;20050;-81
2021/11/11 02:14:13;;;;;;;29.50;13.63;;;2.50;88.70;;;;;;6205910;28;20050;-80
2021/11/11 02:17:15;;;;;;;29.77;14.60;;;2.70;88.70;;;;;;6207643;28;20486;-80
2021/11/11 02:20:21;;;;;;;32.80;13.52;;;2.80;88.50;;;;;;6207972;28;20116;-81
2021/11/11 02:23:23;;;;;;;32.42;14.10;;;2.90;88.30;;;;;;6216401;28;20357;-81
2021/11/11 02:26:25;;;;;;;34.60;13.90;;;3.00;87.90;;;;;;6230839;28;20046;-81
2021/11/11 02:29:28;;;;;;;24.13;13.23;;;3.10;87.70;;;;;;6231438;28;20503;-80
2021/11/11 02:32:30;;;;;;;27.23;14.32;;;3.20;87.60;;;;;;6250319;28;20054;-81
2021/11/11 02:35:33;;;;;;;27.80;13.65;;;3.20;88.30;;;;;;6247482;28;20050;-81
2021/11/11 02:38:35;;;;;;;30.02;13.55;;;3.30;87.70;;;;;;6237326;28;20049;-82
2021/11/11 02:41:37;;;;;;;30.42;15.00;;;3.30;87.70;;;;;;6237874;28;20435;-82
2021/11/11 02:44:42;;;;;;;28.92;14.15;;;3.50;87.60;;;;;;6235872;28;20046;-82
2021/11/11 02:47:45;;;;;;;30.02;12.90;;;3.50;87.40;;;;;;6236220;28;20052;-82
2021/11/11 02:50:49;;;;;;;27.98;13.15;;;3.60;87.20;;;;;;6234668;28;20060;-82
2021/11/11 02:53:52;;;;;;;34.63;13.13;;;3.70;87.00;;;;;;6235567;28;20120;-81
2021/11/11 02:56:54;;;;;;;37.28;14.25;;;3.70;86.70;;;;;;6235241;28;20451;-82
2021/11/11 02:59:59;;;;;;;31.33;13.75;;;3.60;86.90;;;;;;6232261;28;20050;-82
2021/11/11 03:03:00;;;;;;;44.58;15.23;;;3.60;87.20;;;;;;6233126;28;20176;-82
2021/11/11 03:06:04;;;;;;;30.67;13.10;;;3.60;87.10;;;;;;6234126;28;20522;-82
2021/11/11 03:09:05;;;;;;;58.25;15.13;;;3.70;87.00;;;;;;6233730;28;20046;-82
2021/11/11 03:12:08;;;;;;;30.98;14.15;;;3.70;87.30;;;;;;6234596;28;20124;-82
2021/11/11 03:15:11;;;;;;;34.47;13.95;;;3.80;87.60;;;;;;6234798;28;20053;-82
2021/11/11 03:18:13;;;;;;;53.70;14.10;;;3.90;87.50;;;;;;6232824;28;20057;-82
2021/11/11 03:21:16;;;;;;;67.28;15.90;;;3.90;87.50;;;;;;6232598;28;20120;-82
2021/11/11 03:24:17;;;;;;;45.83;12.48;;;3.80;87.30;;;;;;6228518;28;20109;-81
2021/11/11 03:27:20;;;;;;;58.47;17.10;;;3.90;87.40;;;;;;6232790;28;20049;-81
2021/11/11 03:30:24;;;;;;;54.33;14.52;;;3.80;87.90;;;;;;6231716;28;20048;-82
2021/11/11 03:33:26;;;;;;;74.70;14.63;;;3.80;87.90;;;;;;6231027;28;20050;-81
2021/11/11 03:36:29;;;;;;;49.38;15.60;;;3.80;88.00;;;;;;6232169;28;20053;-81
2021/11/11 03:39:31;;;;;;;45.20;14.40;;;3.90;88.30;;;;;;6232175;28;20140;-82
2021/11/11 03:42:32;;;;;;;51.85;18.60;;;3.80;88.30;;;;;;6230825;28;20056;-82
2021/11/11 03:45:35;;;;;;;50.33;15.90;;;3.90;88.30;;;;;;6230379;28;20072;-81
2021/11/11 03:48:37;;;;;;;79.90;18.17;;;3.90;88.00;;;;;;6231586;28;20156;-81
2021/11/11 03:51:40;;;;;;;84.72;17.23;;;3.90;88.20;;;;;;6231292;28;20104;-82
2021/11/11 03:54:42;;;;;;;97.95;20.65;;;3.90;88.30;;;;;;6230277;28;20480;-82
2021/11/11 03:57:44;;;;;;;64.55;16.55;;;4.00;88.30;;;;;;6229259;28;20041;-81
2021/11/11 04:00:47;;;;;;;67.78;17.85;;;4.00;88.20;;;;;;6229821;28;20052;-82
2021/11/11 04:03:48;;;;;;;72.55;18.30;;;4.00;88.50;;;;;;6228122;28;20140;-81
2021/11/11 04:06:52;;;;;;;71.90;16.98;;;4.00;88.50;;;;;;6228601;28;20132;-82
2021/11/11 04:09:53;;;;;;;91.03;19.65;;;4.10;88.60;;;;;;6229332;28;20042;-80
2021/11/11 04:12:55;;;;;;;62.60;17.33;;;4.10;88.50;;;;;;6230880;28;20042;-81
2021/11/11 04:15:57;;;;;;;115.63;20.35;;;4.10;88.50;;;;;;6229021;28;20126;-80
2021/11/11 04:18:59;;;;;;;103.57;20.80;;;4.10;88.50;;;;;;6229188;28;20563;-81
2021/11/11 04:22:03;;;;;;;77.68;18.35;;;4.10;88.70;;;;;;6229265;28;20053;-82
2021/11/11 04:25:07;;;;;;;67.68;18.35;;;4.20;88.70;;;;;;6222985;28;20115;-82
2021/11/11 04:28:16;;;;;;;87.85;18.42;;;4.20;89.00;;;;;;6180736;28;20148;-80
2021/11/11 04:31:23;;;;;;;76.57;18.67;;;4.30;88.70;;;;;;6181184;28;20051;-82
2021/11/11 04:34:26;;;;;;;91.80;22.63;;;4.40;88.80;;;;;;6181336;28;20572;-82
2021/11/11 04:37:33;;;;;;;84.82;21.25;;;4.50;89.00;;;;;;6181260;28;20122;-81
2021/11/11 04:44:03;;;;;;;47.10;16.75;;;4.50;88.90;;;;;;6180173;28;20042;-82
2021/11/11 04:47:22;;;;;;;57.10;17.13;;;4.40;88.90;;;;;;6182538;28;20050;-81
2021/11/11 04:50:46;;;;;;;87.78;18.73;;;4.40;89.00;;;;;;6182273;28;20046;-82
2021/11/11 05:00:47;;;;;;;62.00;17.42;;;4.40;89.10;;;;;;6180675;28;20247;-82
2021/11/11 05:03:49;;;;;;;57.83;18.02;;;4.40;89.40;;;;;;6180875;28;20047;-81
2021/11/11 05:06:51;;;;;;;70.60;18.95;;;4.40;89.60;;;;;;6182998;28;20058;-81
2021/11/11 05:09:54;;;;;;;53.88;18.42;;;4.40;90.00;;;;;;6184098;28;20054;-82
2021/11/11 05:12:57;;;;;;;53.63;18.55;;;4.40;89.70;;;;;;6183059;28;20050;-81
2021/11/11 05:15:58;;;;;;;61.67;18.60;;;4.50;89.80;;;;;;6182336;28;20130;-81
2021/11/11 05:19:00;;;;;;;61.25;20.35;;;4.50;89.70;;;;;;6183798;28;20102;-82
2021/11/11 05:22:02;;;;;;;59.03;17.23;;;4.50;89.60;;;;;;6186448;28;20053;-81
2021/11/11 05:25:06;;;;;;;89.57;20.30;;;4.60;89.60;;;;;;6191014;28;20074;-81
2021/11/11 05:28:08;;;;;;;61.65;18.20;;;4.70;89.60;;;;;;6231389;28;20045;-81
2021/11/11 05:31:10;;;;;;;137.95;22.98;;;4.70;89.50;;;;;;6235535;28;20597;-81
2021/11/11 05:34:12;;;;;;;65.50;17.13;;;4.70;89.50;;;;;;6235821;28;20448;-82
2021/11/11 05:37:15;;;;;;;57.00;18.52;;;4.70;89.60;;;;;;6235833;28;20141;-83
2021/11/11 05:40:20;;;;;;;73.10;20.55;;;4.70;89.60;;;;;;6236033;28;20056;-82
2021/11/11 05:43:22;;;;;;;89.20;21.08;;;4.80;89.60;;;;;;6238197;28;20054;-82
2021/11/11 05:46:23;;;;;;;73.90;21.27;;;4.80;89.60;;;;;;6241659;28;20076;-81
2021/11/11 05:49:26;;;;;;;68.38;19.10;;;4.80;89.80;;;;;;6240770;28;20060;-82
2021/11/11 05:52:28;;;;;;;69.25;20.23;;;4.80;89.90;;;;;;6237873;28;20052;-81
2021/11/11 05:55:31;;;;;;;89.57;21.77;;;4.90;90.00;;;;;;6239665;28;20132;-82
2021/11/11 05:58:33;;;;;;;63.70;21.67;;;4.90;90.00;;;;;;6235089;28;20042;-81
2021/11/11 06:01:35;;;;;;;61.33;20.67;;;4.90;90.00;;;;;;6234638;28;20053;-83
2021/11/11 06:04:36;;;;;;;58.65;19.23;;;4.90;90.00;;;;;;6247412;28;20053;-82
2021/11/11 06:07:38;;;;;;;45.75;18.98;;;4.90;90.00;;;;;;6251815;28;20052;-81
2021/11/11 06:10:41;;;;;;;72.18;22.50;;;5.00;90.00;;;;;;6243698;28;20058;-82
2021/11/11 06:13:43;;;;;;;90.18;25.85;;;5.00;90.40;;;;;;6233508;28;20050;-82
2021/11/11 06:16:45;;;;;;;76.85;23.35;;;5.10;90.60;;;;;;6232664;28;20129;-82
2021/11/11 06:19:49;;;;;;;55.25;22.50;;;5.10;90.70;;;;;;6232471;28;20077;-82
2021/11/11 06:22:51;;;;;;;67.35;20.50;;;5.20;90.40;;;;;;6232745;28;20074;-82
2021/11/11 06:25:57;;;;;;;63.30;22.23;;;5.20;90.20;;;;;;6230543;28;20073;-82
2021/11/11 06:28:59;;;;;;;63.13;22.27;;;5.20;90.20;;;;;;6216659;28;20531;-81
2021/11/11 06:32:01;;;;;;;59.85;19.15;;;5.20;90.10;;;;;;6206874;28;20047;-82
2021/11/11 06:35:03;;;;;;;70.95;19.17;;;5.10;90.10;;;;;;6207977;28;20054;-81
2021/11/11 06:38:05;;;;;;;75.88;21.38;;;5.00;90.30;;;;;;6206746;28;20886;-82
2021/11/11 06:41:09;;;;;;;61.42;21.65;;;5.00;90.40;;;;;;6207282;28;20046;-81
2021/11/11 06:44:18;;;;;;;60.97;20.42;;;5.00;90.60;;;;;;6207018;28;20046;-82
2021/11/11 06:47:20;;;;;;;65.72;22.55;;;5.00;90.50;;;;;;6207171;28;20095;-82
2021/11/11 06:50:22;;;;;;;79.15;21.80;;;5.10;90.80;;;;;;6207003;28;20093;-81
2021/11/11 06:53:25;;;;;;;64.05;20.85;;;5.20;90.60;;;;;;6208006;28;20066;-82
2021/11/11 06:56:28;;;;;;;69.88;22.48;;;5.30;90.40;;;;;;6207844;28;20046;-82
2021/11/11 06:59:30;;;;;;;53.85;22.48;;;5.40;90.70;;;;;;6207974;28;20056;-82
2021/11/11 07:02:32;;;;;;;57.90;21.55;;;5.50;90.60;;;;;;6206654;28;20181;-82
2021/11/11 07:05:34;;;;;;;64.43;20.60;;;5.50;90.50;;;;;;6207063;28;20536;-82
2021/11/11 07:08:35;;;;;;;56.95;21.50;;;5.60;90.30;;;;;;6207324;28;20133;-83
2021/11/11 07:11:39;;;;;;;68.03;21.80;;;5.60;90.20;;;;;;6207240;28;20050;-82
2021/11/11 07:14:42;;;;;;;71.45;22.38;;;5.50;90.10;;;;;;6207333;28;20058;-82
2021/11/11 07:17:45;;;;;;;72.70;22.05;;;5.50;90.10;;;;;;6207196;28;20058;-82
2021/11/11 07:20:49;;;;;;;55.35;19.83;;;5.50;90.40;;;;;;6206592;28;20050;-82
2021/11/11 07:23:51;;;;;;;80.60;22.17;;;5.50;90.10;;;;;;6206557;28;20061;-81
2021/11/11 07:26:54;;;;;;;67.32;20.05;;;5.50;90.00;;;;;;6211224;28;20086;-81
2021/11/11 07:29:56;;;;;;;69.57;22.40;;;5.50;90.00;;;;;;6228186;28;20049;-82
2021/11/11 07:32:58;;;;;;;62.40;20.60;;;5.50;90.10;;;;;;6231963;28;20050;-82
2021/11/11 07:36:02;;;;;;;63.45;21.20;;;5.50;90.20;;;;;;6231255;28;20045;-80
2021/11/11 07:39:04;;;;;;;69.43;23.25;;;5.50;90.20;;;;;;6232512;28;20056;-81
2021/11/11 07:42:09;;;;;;;90.15;24.35;;;5.60;90.00;;;;;;6229882;28;20089;-81
2021/11/11 07:45:12;;;;;;;84.22;21.05;;;5.50;90.00;;;;;;6230930;28;20050;-81
2021/11/11 07:48:14;;;;;;;93.97;23.73;;;5.50;90.20;;;;;;6230879;28;20045;-80
2021/11/11 07:51:16;;;;;;;81.30;21.95;;;5.50;90.30;;;;;;6231703;28;20045;-81
2021/11/11 07:54:17;;;;;;;96.25;22.05;;;5.50;90.30;;;;;;6230493;28;20436;-81
2021/11/11 07:57:23;;;;;;;87.55;24.45;;;5.50;90.30;;;;;;6229186;28;20053;-82
2021/11/11 08:00:25;;;;;;;72.90;22.48;;;5.60;90.30;;;;;;6230139;28;20065;-81
2021/11/11 08:03:27;;;;;;;98.20;23.27;;;5.60;90.10;;;;;;6230329;28;20053;-81
2021/11/11 08:06:29;;;;;;;54.17;23.35;;;5.60;90.20;;;;;;6230433;28;20073;-81
2021/11/11 08:09:30;;;;;;;71.57;20.95;;;5.60;90.20;;;;;;6230133;28;20046;-80
2021/11/11 08:12:34;;;;;;;83.38;26.02;;;5.70;90.20;;;;;;6230397;28;20775;-81
2021/11/11 08:15:35;;;;;;;78.47;26.02;;;5.80;90.20;;;;;;6233246;28;20188;-81
2021/11/11 08:18:37;;;;;;;87.93;26.00;;;5.80;90.20;;;;;;6232046;28;20109;-81
2021/11/11 08:21:39;;;;;;;92.38;27.00;;;5.90;90.10;;;;;;6230363;28;20504;-81
2021/11/11 08:24:43;;;;;;;79.80;24.80;;;6.00;90.00;;;;;;6229517;28;20037;-81
2021/11/11 08:27:49;;;;;;;89.63;28.17;;;6.00;90.00;;;;;;6229162;28;20440;-81
2021/11/11 08:30:51;;;;;;;79.00;25.08;;;6.10;90.00;;;;;;6207166;28;20077;-81
2021/11/11 08:33:52;;;;;;;94.82;27.25;;;6.20;89.80;;;;;;6205454;28;20565;-81
2021/11/11 08:36:54;;;;;;;84.70;24.63;;;6.20;89.80;;;;;;6204616;28;20070;-80
2021/11/11 08:39:56;;;;;;;74.35;26.88;;;6.30;89.30;;;;;;6204645;28;20391;-81
2021/11/11 08:43:00;;;;;;;77.93;24.55;;;6.20;89.40;;;;;;6205865;28;20049;-82
2021/11/11 08:46:02;;;;;;;85.80;25.40;;;6.30;89.70;;;;;;6205020;28;20054;-81
2021/11/11 08:49:04;;;;;;;83.88;27.88;;;6.40;89.70;;;;;;6204266;28;20526;-81
2021/11/11 08:52:06;;;;;;;64.55;24.50;;;6.60;89.40;;;;;;6204064;28;20124;-81
2021/11/11 08:55:09;;;;;;;82.55;22.98;;;6.60;89.00;;;;;;6208155;28;20158;-80
2021/11/11 08:58:13;;;;;;;71.60;21.85;;;6.70;88.80;;;;;;6208831;28;20089;-80
2021/11/11 09:01:15;;;;;;;53.47;20.17;;;6.70;88.80;;;;;;6209484;28;20053;-81
2021/11/11 09:04:17;;;;;;;54.83;19.98;;;6.60;87.60;;;;;;6180282;28;20495;-79
2021/11/11 09:07:19;;;;;;;58.33;20.67;;;6.50;88.00;;;;;;6201702;28;20042;-80
2021/11/11 09:10:22;;;;;;;51.92;22.05;;;6.50;88.50;;;;;;6205661;28;20480;-78
2021/11/11 09:13:27;;;;;;;58.00;20.55;;;6.50;88.70;;;;;;6207716;28;20050;-79
2021/11/11 09:16:29;;;;;;;56.22;20.08;;;6.60;88.40;;;;;;6208146;28;20042;-82
2021/11/11 09:19:31;;;;;;;56.40;20.05;;;6.60;88.50;;;;;;6208422;28;20042;-80
2021/11/11 09:22:34;;;;;;;55.75;21.80;;;6.80;88.60;;;;;;6208816;28;20054;-79
2021/11/11 09:25:36;;;;;;;63.13;22.27;;;6.80;89.10;;;;;;6207633;28;20073;-82
2021/11/11 09:28:44;;;;;;;61.15;21.15;;;6.90;87.50;;;;;;6208737;28;20505;-81
2021/11/11 09:31:46;;;;;;;56.83;23.83;;;6.90;87.90;;;;;;6209441;28;20526;-81
2021/11/11 09:34:48;;;;;;;61.30;22.85;;;7.00;88.00;;;;;;6209648;28;20126;-81
2021/11/11 09:37:50;;;;;;;51.65;20.95;;;7.10;87.80;;;;;;6189535;28;20129;-82
2021/11/11 09:40:53;;;;;;;53.17;18.45;;;7.00;87.40;;;;;;6183396;28;20058;-78
2021/11/11 09:43:56;;;;;;;54.85;21.25;;;7.00;87.30;;;;;;6195922;28;20055;-79
2021/11/11 09:46:58;;;;;;;44.30;18.73;;;7.00;87.40;;;;;;6197683;28;20074;-80
2021/11/11 09:50:01;;;;;;;55.40;20.38;;;7.00;87.50;;;;;;6187701;28;20134;-82
2021/11/11 09:53:08;;;;;;;44.50;18.75;;;7.10;87.30;;;;;;6184477;28;20057;-79
2021/11/11 09:59:35;;;;;;;57.95;20.58;;;7.20;86.90;;;;;;6184839;28;20047;-82
2021/11/11 10:02:37;;;;;;;52.92;23.40;;;7.10;86.80;;;;;;6187674;28;20509;-81
2021/11/11 10:05:39;;;;;;;48.13;18.33;;;7.20;87.10;;;;;;6183265;28;20070;-81
2021/11/11 10:08:43;;;;;;;52.78;21.02;;;7.30;86.70;;;;;;6184779;28;20049;-80
2021/11/11 10:11:50;;;;;;;43.83;20.52;;;7.40;86.90;;;;;;6186115;28;20066;-81
2021/11/11 10:15:08;;;;;;;59.03;19.17;;;7.40;86.80;;;;;;6184714;28;20133;-82
2021/11/11 10:18:10;;;;;;;40.35;18.23;;;7.50;86.60;;;;;;6185452;28;20089;-83
2021/11/11 10:21:40;;;;;;;42.28;19.42;;;7.50;86.40;;;;;;6184348;28;20525;-82
2021/11/11 10:24:45;;;;;;;49.35;18.60;;;7.50;85.70;;;;;;6177326;28;20111;-81
2021/11/11 10:27:52;;;;;;;40.05;18.90;;;7.40;86.00;;;;;;6182037;28;20106;-82
2021/11/11 10:30:55;;;;;;;48.13;19.42;;;7.40;86.40;;;;;;6187405;28;20050;-81
2021/11/11 10:34:05;;;;;;;50.03;18.73;;;7.40;85.50;;;;;;6200020;28;20539;-81
2021/11/11 10:37:10;;;;;;;56.75;21.52;;;7.30;85.30;;;;;;6201896;28;20062;-82
2021/11/11 10:40:16;;;;;;;49.60;16.52;;;7.30;85.30;;;;;;6181477;28;20181;-81
2021/11/11 10:43:21;;;;;;;44.40;19.90;;;7.30;85.60;;;;;;6186769;28;20061;-81
2021/11/11 10:46:46;;;;;;;46.33;18.92;;;7.30;85.50;;;;;;6188517;28;20580;-82
2021/11/11 10:49:48;;;;;;;50.05;19.50;;;7.40;85.50;;;;;;6182263;28;20042;-82
2021/11/11 10:52:51;;;;;;;43.67;18.73;;;7.50;85.10;;;;;;6183167;28;20047;-83
2021/11/11 10:55:55;;;;;;;40.67;19.38;;;7.60;85.10;;;;;;6184902;28;20085;-82
2021/11/11 10:58:57;;;;;;;45.38;17.83;;;7.60;84.90;;;;;;6184199;28;20051;-82
2021/11/11 11:02:04;;;;;;;62.58;20.08;;;7.60;84.80;;;;;;6183263;28;20042;-82
2021/11/11 11:05:08;;;;;;;46.27;19.87;;;7.50;84.50;;;;;;6182582;28;20057;-82
2021/11/11 11:08:12;;;;;;;44.30;19.52;;;7.50;85.00;;;;;;6176888;28;20105;-83
2021/11/11 11:11:17;;;;;;;45.65;19.33;;;7.60;84.80;;;;;;6182650;28;20097;-82
2021/11/11 11:14:22;;;;;;;43.10;19.92;;;7.60;84.90;;;;;;6183277;28;20042;-81
2021/11/11 11:17:26;;;;;;;55.83;20.00;;;7.60;85.30;;;;;;6182210;28;20428;-82
2021/11/11 11:20:28;;;;;;;49.95;21.33;;;7.70;85.00;;;;;;6182711;28;20503;-81
2021/11/11 11:23:33;;;;;;;50.05;20.17;;;7.70;84.70;;;;;;6183560;28;20441;-81
2021/11/11 11:26:37;;;;;;;42.25;19.17;;;7.70;84.70;;;;;;6184519;28;20154;-82
2021/11/11 11:29:43;;;;;;;65.47;21.17;;;7.70;84.90;;;;;;6184120;28;20544;-82
2021/11/11 11:32:53;;;;;;;48.42;19.63;;;7.70;84.80;;;;;;6190677;28;20697;-82
2021/11/11 11:35:55;;;;;;;45.20;18.23;;;7.60;85.00;;;;;;6208691;28;20050;-83
2021/11/11 11:38:57;;;;;;;57.35;21.15;;;7.70;85.10;;;;;;6187066;28;20051;-82
2021/11/11 11:42:02;;;;;;;51.45;21.52;;;7.80;85.30;;;;;;6184182;28;20053;-82
2021/11/11 11:45:06;;;;;;;58.60;22.23;;;8.00;84.90;;;;;;6184498;28;20050;-82
2021/11/11 11:48:18;;;;;;;46.45;20.25;;;8.00;84.60;;;;;;6185075;28;20174;-82
2021/11/11 11:51:25;;;;;;;40.63;19.63;;;8.10;84.10;;;;;;6185318;28;20070;-82
2021/11/11 11:54:33;;;;;;;50.30;20.10;;;8.10;84.00;;;;;;6195000;28;20051;-81
2021/11/11 12:01:21;;;;;;;52.20;20.92;;;8.10;84.10;;;;;;6176969;28;20133;-83
2021/11/11 12:04:36;;;;;;;42.63;20.67;;;8.30;84.00;;;;;;6178071;28;20042;-81
2021/11/11 12:14:34;;;;;;;46.17;19.45;;;8.50;83.30;;;;;;6179539;28;20047;-81
2021/11/11 12:17:49;;;;;;;44.90;21.08;;;8.60;82.90;;;;;;6178969;28;20065;-81
2021/11/11 12:41:16;;;;;;;43.75;20.25;;;8.50;82.50;;;;;;6176015;28;20150;-81
2021/11/11 12:44:23;;;;;;;43.33;20.48;;;8.50;82.50;;;;;;6176687;28;20091;-81
2021/11/11 12:47:36;;;;;;;42.78;20.50;;;8.50;82.40;;;;;;6178677;28;20054;-80
2021/11/11 12:50:41;;;;;;;45.28;20.38;;;8.50;82.50;;;;;;6177957;28;20393;-80
2021/11/11 12:53:49;;;;;;;57.15;24.40;;;8.50;82.30;;;;;;6177582;28;20047;-81
2021/11/11 12:57:03;;;;;;;53.42;21.50;;;8.50;82.50;;;;;;6178453;28;20074;-79
2021/11/11 13:00:25;;;;;;;79.18;38.67;;;8.40;82.60;;;;;;6177182;28;20129;-79
2021/11/11 13:03:48;;;;;;;53.13;22.50;;;8.40;82.90;;;;;;6178389;28;20125;-82
2021/11/11 13:06:52;;;;;;;47.50;22.05;;;8.40;82.60;;;;;;6179014;28;20509;-82
2021/11/11 13:10:08;;;;;;;50.00;20.63;;;8.20;83.10;;;;;;6179956;28;20043;-81
2021/11/11 13:13:12;;;;;;;58.80;22.98;;;8.20;83.10;;;;;;6175822;28;20054;-80
2021/11/11 13:16:16;;;;;;;47.92;19.33;;;8.30;83.10;;;;;;6176977;28;20047;-80
2021/11/11 13:19:31;;;;;;;45.58;19.25;;;8.20;82.80;;;;;;6177093;28;20102;-80
2021/11/11 13:22:48;;;;;;;49.65;20.35;;;8.10;82.80;;;;;;6180838;28;20118;-79
2021/11/11 13:26:10;;;;;;;57.92;22.05;;;8.00;83.30;;;;;;6197800;28;20058;-80
2021/11/11 14:00:18;;;;;;;69.13;25.88;;;7.80;85.00;;;;;;6183286;28;20055;-79
2021/11/11 15:17:34;;;;;;;;;;;7.20;87.00;;;;;;6233631;28;20097;-82
2021/11/11 15:44:33;;;;;;;89.85;30.17;;;7.30;88.00;;;;;;6230203;28;19921;-81
2021/11/11 16:02:33;;;;;;;;;;;7.20;87.50;;;;;;6181331;28;20065;-79
2021/11/11 16:22:15;;;;;;;98.18;29.02;;;6.80;88.70;;;;;;6230204;28;20057;-79
2021/11/11 16:25:36;;;;;;;99.85;29.92;;;6.80;88.90;;;;;;6228112;28;20057;-79
2021/11/11 16:28:38;;;;;;;121.85;30.65;;;6.70;89.60;;;;;;6226719;28;20124;-80
2021/11/11 16:31:41;;;;;;;102.22;31.48;;;6.80;89.10;;;;;;6228619;28;20050;-79
2021/11/11 16:34:43;;;;;;;107.68;33.97;;;6.90;89.00;;;;;;6228934;28;20049;-81
2021/11/11 16:37:46;;;;;;;122.60;31.65;;;6.90;88.80;;;;;;6238459;28;20037;-80
2021/11/11 16:40:48;;;;;;;117.22;33.10;;;6.90;88.70;;;;;;6237955;28;20045;-81
2021/11/11 16:43:50;;;;;;;118.25;29.80;;;6.80;88.70;;;;;;6229375;28;20054;-80
2021/11/11 16:46:54;;;;;;;118.65;33.15;;;6.80;89.00;;;;;;6230162;28;20060;-79
2021/11/11 16:49:56;;;;;;;108.10;34.25;;;6.80;89.00;;;;;;6230678;28;20042;-80
2021/11/11 16:52:58;;;;;;;109.30;32.80;;;6.80;89.90;;;;;;6214953;28;20113;-80
2021/11/11 16:56:00;;;;;;;117.65;31.00;;;6.80;89.30;;;;;;6229885;28;20052;-79
2021/11/11 16:59:02;;;;;;;128.85;33.38;;;6.80;89.00;;;;;;6238167;28;20105;-78
2021/11/11 17:02:07;;;;;;;104.68;31.90;;;6.80;89.10;;;;;;6239339;28;20042;-78
2021/11/11 17:05:10;;;;;;;120.03;36.38;;;6.90;89.10;;;;;;6223272;28;20045;-79
2021/11/11 17:08:12;;;;;;;99.60;30.58;;;6.90;88.90;;;;;;6227972;28;20129;-79
2021/11/11 17:11:14;;;;;;;151.88;34.33;;;7.00;89.00;;;;;;6228230;28;20048;-80
2021/11/11 17:14:16;;;;;;;119.93;31.30;;;7.00;89.00;;;;;;6229626;28;20105;-80
2021/11/11 17:17:20;;;;;;;102.80;31.92;;;7.00;88.80;;;;;;6233240;28;20054;-80
2021/11/11 17:20:23;;;;;;;115.63;29.85;;;7.00;88.60;;;;;;6232857;28;20049;-80
2021/11/11 17:23:25;;;;;;;107.82;28.35;;;7.00;88.70;;;;;;6233546;28;20049;-80
2021/11/11 17:26:43;;;;;;;119.68;31.17;;;7.00;88.90;;;;;;6233168;28;20041;-80
2021/11/11 17:29:45;;;;;;;123.85;31.40;;;7.00;89.00;;;;;;6232800;28;20052;-80
2021/11/11 17:32:48;;;;;;;119.65;31.58;;;7.00;89.10;;;;;;6233354;28;20050;-80
2021/11/11 17:35:51;;;;;;;109.20;32.40;;;7.00;89.00;;;;;;6232761;28;20547;-80
2021/11/11 17:38:53;;;;;;;140.75;38.05;;;7.10;88.90;;;;;;6234535;28;20046;-80
2021/11/11 17:41:55;;;;;;;139.65;37.38;;;7.10;90.80;;;;;;6208527;28;20057;-80
2021/11/11 17:44:57;;;;;;;150.20;45.10;;;7.20;90.00;;;;;;6211555;28;20046;-80
2021/11/11 17:48:03;;;;;;;140.30;36.58;;;7.30;90.70;;;;;;6213036;28;20089;-79
2021/11/11 17:51:12;;;;;;;127.93;33.75;;;7.30;90.00;;;;;;6213082;28;20132;-80
2021/11/11 17:54:17;;;;;;;117.13;33.03;;;7.30;89.70;;;;;;6208185;28;20130;-80
2021/11/11 17:57:21;;;;;;;118.20;32.15;;;7.30;89.50;;;;;;6208069;28;20129;-80
2021/11/11 18:00:23;;;;;;;111.03;29.73;;;7.30;89.30;;;;;;6207755;28;20066;-80
2021/11/11 18:03:26;;;;;;;111.18;29.80;;;7.30;89.00;;;;;;6208501;28;20164;-80
2021/11/11 18:06:32;;;;;;;110.30;28.23;;;7.30;88.70;;;;;;6209848;28;20129;-80
2021/11/11 18:09:43;;;;;;;144.05;28.50;;;7.20;89.00;;;;;;6231282;28;20046;-80
2021/11/11 18:12:47;;;;;;;102.88;27.08;;;7.10;88.80;;;;;;6231500;28;20065;-80
2021/11/11 18:15:50;;;;;;;106.30;29.33;;;7.00;89.10;;;;;;6231103;28;20054;-80
2021/11/11 18:18:53;;;;;;;106.97;30.05;;;7.00;89.30;;;;;;6231401;28;20064;-81
2021/11/11 18:21:55;;;;;;;125.82;32.42;;;7.00;89.30;;;;;;6233651;28;20046;-82
2021/11/11 18:24:59;;;;;;;120.97;28.73;;;7.00;89.30;;;;;;6235615;28;20490;-82
2021/11/11 18:28:05;;;;;;;142.40;30.98;;;7.00;89.40;;;;;;6231950;28;20042;-84
2021/11/11 18:31:10;;;;;;;112.45;30.92;;;7.00;89.10;;;;;;6233999;28;20109;-82
2021/11/11 18:34:19;;;;;;;184.65;32.75;;;7.00;89.10;;;;;;6233365;28;20550;-82
2021/11/11 18:37:23;;;;;;;194.77;30.58;;;7.00;88.80;;;;;;6233666;28;20432;-81
2021/11/11 18:40:25;;;;;;;180.10;32.92;;;7.00;89.50;;;;;;6236584;28;20097;-80
2021/11/11 18:43:29;;;;;;;144.15;30.98;;;6.80;89.10;;;;;;6238099;28;20049;-81
2021/11/11 18:46:38;;;;;;;143.23;28.77;;;6.80;90.00;;;;;;6237073;28;20054;-83
2021/11/11 18:49:42;;;;;;;118.50;27.92;;;6.60;89.40;;;;;;6234321;28;20046;-81
2021/11/11 18:52:43;;;;;;;116.20;29.98;;;6.50;89.90;;;;;;6234192;28;20045;-81
2021/11/11 18:55:45;;;;;;;87.78;24.98;;;6.50;90.10;;;;;;6231101;28;20137;-82
2021/11/11 18:58:47;;;;;;;109.72;26.15;;;6.60;90.00;;;;;;6234063;28;20492;-82
2021/11/11 19:01:49;;;;;;;103.43;27.77;;;6.60;90.00;;;;;;6234618;28;20093;-81
2021/11/11 19:04:56;;;;;;;111.93;29.83;;;6.70;89.80;;;;;;6233158;28;20050;-80
2021/11/11 19:08:02;;;;;;;103.05;28.48;;;6.80;89.70;;;;;;6235251;28;20056;-81